sensor_id;sensor_type;location;lat;lon;timestamp;temperature;humidity
18126;DHT22;53956;52.442;13.284;2023-08-21T00:02:19;26.20;99.90
18126;DHT22;53956;52.442;13.284;2023-08-21T00:04:46;26.20;99.90
18126;DHT22;53956;52.442;13.284;2023-08-21T00:07:13;26.50;99.90
18126;DHT22;53956;52.442;13.284;2023-08-21T00:09:40;26.60;99.90
18126;DHT22;53956;52.442;13.284;2023-08-21T00:12:07;26.70;99.90
18126;DHT22;53956;52.442;13.284;2023-08-21T00:14:34;26.60;99.90
18126;DHT22;53956;52.442;13.284;2023-08-21T00:17:01;26.40;99.90
18126;DHT22;53956;52.442;13.284;2023-08-21T00:19:29;26.50;99.90
18126;DHT22;53956;52.442;13.284;2023-08-21T00:21:55;26.30;99.90
18126;DHT22;53956;52.442;13.284;2023-08-21T00:24:22;26.20;99.90
18126;DHT22;53956;52.442;13.284;2023-08-21T00:26:50;26.20;99.90
18126;DHT22;53956;52.442;13.284;2023-08-21T00:29:17;26.10;99.90
18126;DHT22;53956;52.442;13.284;2023-08-21T00:31:43;26.10;99.90
18126;DHT22;53956;52.442;13.284;2023-08-21T00:34:10;26.20;99.90
18126;DHT22;53956;52.442;13.284;2023-08-21T00:36:37;26.20;99.90
18126;DHT22;53956;52.442;13.284;2023-08-21T00:39:04;26.30;99.90
18126;DHT22;53956;52.442;13.284;2023-08-21T00:41:32;26.40;99.90
18126;DHT22;53956;52.442;13.284;2023-08-21T00:44:01;26.40;99.90
18126;DHT22;53956;52.442;13.284;2023-08-21T00:46:28;26.40;99.90
18126;DHT22;53956;52.442;13.284;2023-08-21T00:48:54;26.50;99.90
18126;DHT22;53956;52.442;13.284;2023-08-21T00:51:21;26.40;99.90
18126;DHT22;53956;52.442;13.284;2023-08-21T00:53:48;26.50;99.90
18126;DHT22;53956;52.442;13.284;2023-08-21T00:56:15;26.30;99.90
18126;DHT22;53956;52.442;13.284;2023-08-21T00:58:42;26.30;99.90
18126;DHT22;53956;52.442;13.284;2023-08-21T01:01:10;26.40;99.90
18126;DHT22;53956;52.442;13.284;2023-08-21T01:03:38;26.40;99.90
18126;DHT22;53956;52.442;13.284;2023-08-21T01:06:05;26.50;99.90
18126;DHT22;53956;52.442;13.284;2023-08-21T01:08:40;26.50;99.90
18126;DHT22;53956;52.442;13.284;2023-08-21T01:11:14;26.40;99.90
18126;DHT22;53956;52.442;13.284;2023-08-21T01:13:50;26.20;99.90
18126;DHT22;53956;52.442;13.284;2023-08-21T01:16:20;26.10;99.90
18126;DHT22;53956;52.442;13.284;2023-08-21T01:18:47;26.00;99.90
18126;DHT22;53956;52.442;13.284;2023-08-21T01:21:15;26.10;99.90
18126;DHT22;53956;52.442;13.284;2023-08-21T01:23:43;26.30;99.90
18126;DHT22;53956;52.442;13.284;2023-08-21T01:26:10;26.40;99.90
18126;DHT22;53956;52.442;13.284;2023-08-21T01:28:37;26.10;99.90
18126;DHT22;53956;52.442;13.284;2023-08-21T01:31:08;26.20;99.90
18126;DHT22;53956;52.442;13.284;2023-08-21T01:33:40;25.90;99.90
18126;DHT22;53956;52.442;13.284;2023-08-21T01:36:08;25.50;99.90
18126;DHT22;53956;52.442;13.284;2023-08-21T01:38:35;25.70;99.90
18126;DHT22;53956;52.442;13.284;2023-08-21T01:41:03;26.00;99.90
18126;DHT22;53956;52.442;13.284;2023-08-21T01:43:32;25.90;99.90
18126;DHT22;53956;52.442;13.284;2023-08-21T01:46:00;26.00;99.90
18126;DHT22;53956;52.442;13.284;2023-08-21T01:48:27;26.10;99.90
18126;DHT22;53956;52.442;13.284;2023-08-21T01:50:54;26.30;99.90
18126;DHT22;53956;52.442;13.284;2023-08-21T01:53:21;26.40;99.90
18126;DHT22;53956;52.442;13.284;2023-08-21T02:25:38;26.10;99.90
18126;DHT22;53956;52.442;13.284;2023-08-21T02:28:05;26.30;99.90
18126;DHT22;53956;52.442;13.284;2023-08-21T02:30:32;26.30;99.90
18126;DHT22;53956;52.442;13.284;2023-08-21T02:32:58;26.40;99.90
18126;DHT22;53956;52.442;13.284;2023-08-21T02:35:26;26.30;99.90
18126;DHT22;53956;52.442;13.284;2023-08-21T02:37:52;26.30;99.90
18126;DHT22;53956;52.442;13.284;2023-08-21T02:40:19;26.30;99.90
18126;DHT22;53956;52.442;13.284;2023-08-21T02:42:47;26.10;99.90
18126;DHT22;53956;52.442;13.284;2023-08-21T02:45:14;25.90;99.90
18126;DHT22;53956;52.442;13.284;2023-08-21T02:47:42;25.60;99.90
18126;DHT22;53956;52.442;13.284;2023-08-21T02:50:09;25.60;99.90
18126;DHT22;53956;52.442;13.284;2023-08-21T02:52:37;26.00;99.90
18126;DHT22;53956;52.442;13.284;2023-08-21T02:55:05;26.00;99.90
18126;DHT22;53956;52.442;13.284;2023-08-21T02:57:32;26.10;99.90
18126;DHT22;53956;52.442;13.284;2023-08-21T03:00:00;26.30;99.90
18126;DHT22;53956;52.442;13.284;2023-08-21T03:02:28;26.30;99.90
18126;DHT22;53956;52.442;13.284;2023-08-21T03:04:54;26.20;99.90
18126;DHT22;53956;52.442;13.284;2023-08-21T03:07:21;26.20;99.90
18126;DHT22;53956;52.442;13.284;2023-08-21T03:09:48;26.20;99.90
18126;DHT22;53956;52.442;13.284;2023-08-21T03:12:15;26.10;99.90
18126;DHT22;53956;52.442;13.284;2023-08-21T03:14:42;26.20;99.90
18126;DHT22;53956;52.442;13.284;2023-08-21T03:17:10;26.30;99.90
18126;DHT22;53956;52.442;13.284;2023-08-21T03:19:37;26.30;99.90
18126;DHT22;53956;52.442;13.284;2023-08-21T03:22:04;26.30;99.90
18126;DHT22;53956;52.442;13.284;2023-08-21T03:24:32;26.20;99.90
18126;DHT22;53956;52.442;13.284;2023-08-21T03:26:58;26.10;99.90
18126;DHT22;53956;52.442;13.284;2023-08-21T03:29:25;26.20;99.90
18126;DHT22;53956;52.442;13.284;2023-08-21T03:31:53;26.20;99.90
18126;DHT22;53956;52.442;13.284;2023-08-21T03:34:21;26.10;99.90
18126;DHT22;53956;52.442;13.284;2023-08-21T03:36:51;26.20;99.90
18126;DHT22;53956;52.442;13.284;2023-08-21T03:39:19;26.30;99.90
18126;DHT22;53956;52.442;13.284;2023-08-21T03:41:47;26.10;99.90
18126;DHT22;53956;52.442;13.284;2023-08-21T03:44:15;26.20;99.90
18126;DHT22;53956;52.442;13.284;2023-08-21T03:46:41;26.20;99.90
18126;DHT22;53956;52.442;13.284;2023-08-21T03:49:09;26.30;99.90
18126;DHT22;53956;52.442;13.284;2023-08-21T03:51:37;26.30;99.90
18126;DHT22;53956;52.442;13.284;2023-08-21T03:54:04;26.20;99.90
18126;DHT22;53956;52.442;13.284;2023-08-21T03:56:31;26.20;99.90
18126;DHT22;53956;52.442;13.284;2023-08-21T03:58:58;26.20;99.90
18126;DHT22;53956;52.442;13.284;2023-08-21T04:01:24;26.00;99.90
18126;DHT22;53956;52.442;13.284;2023-08-21T04:03:52;26.00;99.90
18126;DHT22;53956;52.442;13.284;2023-08-21T04:06:19;26.00;99.90
18126;DHT22;53956;52.442;13.284;2023-08-21T04:08:48;26.10;99.90
18126;DHT22;53956;52.442;13.284;2023-08-21T04:11:15;26.00;99.90
18126;DHT22;53956;52.442;13.284;2023-08-21T04:13:42;26.10;99.90
18126;DHT22;53956;52.442;13.284;2023-08-21T04:16:09;26.00;99.90
18126;DHT22;53956;52.442;13.284;2023-08-21T04:18:37;26.10;99.90
18126;DHT22;53956;52.442;13.284;2023-08-21T04:21:04;26.00;99.90
18126;DHT22;53956;52.442;13.284;2023-08-21T04:23:31;26.10;99.90
18126;DHT22;53956;52.442;13.284;2023-08-21T04:26:01;26.10;99.90
18126;DHT22;53956;52.442;13.284;2023-08-21T04:28:29;26.10;99.90
18126;DHT22;53956;52.442;13.284;2023-08-21T04:30:57;26.10;99.90
18126;DHT22;53956;52.442;13.284;2023-08-21T04:33:25;26.10;99.90
18126;DHT22;53956;52.442;13.284;2023-08-21T04:35:51;26.10;99.90
18126;DHT22;53956;52.442;13.284;2023-08-21T04:38:18;26.10;99.90
18126;DHT22;53956;52.442;13.284;2023-08-21T04:40:44;26.10;99.90
18126;DHT22;53956;52.442;13.284;2023-08-21T04:43:14;26.00;99.90
18126;DHT22;53956;52.442;13.284;2023-08-21T04:45:47;26.00;99.90
18126;DHT22;53956;52.442;13.284;2023-08-21T04:48:16;26.10;99.90
18126;DHT22;53956;52.442;13.284;2023-08-21T04:50:45;25.90;99.90
18126;DHT22;53956;52.442;13.284;2023-08-21T04:53:13;26.10;99.90
18126;DHT22;53956;52.442;13.284;2023-08-21T04:55:41;26.00;99.90
18126;DHT22;53956;52.442;13.284;2023-08-21T04:58:08;26.10;99.90
18126;DHT22;53956;52.442;13.284;2023-08-21T05:00:37;26.20;99.90
18126;DHT22;53956;52.442;13.284;2023-08-21T05:03:06;26.20;99.90
18126;DHT22;53956;52.442;13.284;2023-08-21T05:05:35;26.20;99.90
18126;DHT22;53956;52.442;13.284;2023-08-21T05:08:02;26.10;99.90
18126;DHT22;53956;52.442;13.284;2023-08-21T05:10:29;26.20;99.90
18126;DHT22;53956;52.442;13.284;2023-08-21T05:12:56;26.10;99.90
18126;DHT22;53956;52.442;13.284;2023-08-21T05:15:23;26.00;99.90
18126;DHT22;53956;52.442;13.284;2023-08-21T05:17:52;26.10;99.90
18126;DHT22;53956;52.442;13.284;2023-08-21T05:20:21;26.10;99.90
18126;DHT22;53956;52.442;13.284;2023-08-21T05:22:48;26.20;99.90
18126;DHT22;53956;52.442;13.284;2023-08-21T05:25:14;26.20;99.90
18126;DHT22;53956;52.442;13.284;2023-08-21T05:27:41;26.30;99.90
18126;DHT22;53956;52.442;13.284;2023-08-21T05:30:09;26.50;99.90
18126;DHT22;53956;52.442;13.284;2023-08-21T05:32:36;26.60;99.90
18126;DHT22;53956;52.442;13.284;2023-08-21T05:35:04;27.00;99.90
18126;DHT22;53956;52.442;13.284;2023-08-21T05:37:31;27.10;99.90
18126;DHT22;53956;52.442;13.284;2023-08-21T05:39:59;27.10;99.90
18126;DHT22;53956;52.442;13.284;2023-08-21T05:42:25;27.20;99.90
18126;DHT22;53956;52.442;13.284;2023-08-21T05:44:53;27.30;99.90
18126;DHT22;53956;52.442;13.284;2023-08-21T05:47:21;27.80;99.90
18126;DHT22;53956;52.442;13.284;2023-08-21T05:49:49;28.80;97.90
18126;DHT22;53956;52.442;13.284;2023-08-21T05:52:17;29.50;93.80
18126;DHT22;53956;52.442;13.284;2023-08-21T05:54:43;29.80;91.80
18126;DHT22;53956;52.442;13.284;2023-08-21T05:57:10;29.20;93.40
18126;DHT22;53956;52.442;13.284;2023-08-21T05:59:43;28.70;96.30
18126;DHT22;53956;52.442;13.284;2023-08-21T06:02:10;28.80;97.10
18126;DHT22;53956;52.442;13.284;2023-08-21T06:04:37;28.70;96.70
18126;DHT22;53956;52.442;13.284;2023-08-21T06:07:04;28.60;97.40
18126;DHT22;53956;52.442;13.284;2023-08-21T06:09:32;28.20;99.10
18126;DHT22;53956;52.442;13.284;2023-08-21T06:11:59;28.10;99.90
18126;DHT22;53956;52.442;13.284;2023-08-21T06:14:27;28.20;99.90
18126;DHT22;53956;52.442;13.284;2023-08-21T06:16:58;28.30;99.90
18126;DHT22;53956;52.442;13.284;2023-08-21T06:19:25;28.90;98.80
18126;DHT22;53956;52.442;13.284;2023-08-21T06:21:52;29.50;94.80
18126;DHT22;53956;52.442;13.284;2023-08-21T06:24:18;29.10;95.30
18126;DHT22;53956;52.442;13.284;2023-08-21T06:26:52;28.80;97.70
18126;DHT22;53956;52.442;13.284;2023-08-21T06:29:19;28.60;98.70
18126;DHT22;53956;52.442;13.284;2023-08-21T06:31:46;28.30;99.80
18126;DHT22;53956;52.442;13.284;2023-08-21T06:34:13;28.30;99.90
18126;DHT22;53956;52.442;13.284;2023-08-21T06:36:40;28.10;99.90
18126;DHT22;53956;52.442;13.284;2023-08-21T06:39:06;28.60;98.90
18126;DHT22;53956;52.442;13.284;2023-08-21T06:41:33;29.20;94.80
18126;DHT22;53956;52.442;13.284;2023-08-21T06:44:01;28.90;96.70
18126;DHT22;53956;52.442;13.284;2023-08-21T06:46:28;28.70;97.80
18126;DHT22;53956;52.442;13.284;2023-08-21T06:48:56;28.70;97.60
18126;DHT22;53956;52.442;13.284;2023-08-21T06:51:22;28.70;97.70
18126;DHT22;53956;52.442;13.284;2023-08-21T06:53:49;28.90;96.10
18126;DHT22;53956;52.442;13.284;2023-08-21T06:56:16;30.10;90.30
18126;DHT22;53956;52.442;13.284;2023-08-21T06:58:42;30.40;88.20
18126;DHT22;53956;52.442;13.284;2023-08-21T07:01:10;30.20;88.00
18126;DHT22;53956;52.442;13.284;2023-08-21T07:03:37;30.70;87.90
18126;DHT22;53956;52.442;13.284;2023-08-21T07:06:04;31.20;86.30
18126;DHT22;53956;52.442;13.284;2023-08-21T07:08:30;32.00;82.50
18126;DHT22;53956;52.442;13.284;2023-08-21T07:10:57;32.50;81.30
18126;DHT22;53956;52.442;13.284;2023-08-21T07:13:24;32.40;80.70
18126;DHT22;53956;52.442;13.284;2023-08-21T07:15:52;32.20;80.30
18126;DHT22;53956;52.442;13.284;2023-08-21T07:18:21;32.10;80.80
18126;DHT22;53956;52.442;13.284;2023-08-21T07:20:48;32.30;80.30
18126;DHT22;53956;52.442;13.284;2023-08-21T07:23:14;32.30;80.30
18126;DHT22;53956;52.442;13.284;2023-08-21T07:25:41;32.30;79.70
18126;DHT22;53956;52.442;13.284;2023-08-21T07:28:07;32.10;79.50
18126;DHT22;53956;52.442;13.284;2023-08-21T07:30:36;31.90;79.60
18126;DHT22;53956;52.442;13.284;2023-08-21T07:33:03;31.30;81.80
18126;DHT22;53956;52.442;13.284;2023-08-21T07:35:32;31.40;82.40
18126;DHT22;53956;52.442;13.284;2023-08-21T07:37:59;31.50;82.40
18126;DHT22;53956;52.442;13.284;2023-08-21T07:40:25;31.40;81.90
18126;DHT22;53956;52.442;13.284;2023-08-21T07:42:52;31.20;82.30
18126;DHT22;53956;52.442;13.284;2023-08-21T07:45:19;31.10;81.70
18126;DHT22;53956;52.442;13.284;2023-08-21T07:47:46;30.80;81.80
18126;DHT22;53956;52.442;13.284;2023-08-21T07:50:12;30.60;81.80
18126;DHT22;53956;52.442;13.284;2023-08-21T07:52:43;30.50;80.90
18126;DHT22;53956;52.442;13.284;2023-08-21T07:55:10;30.60;81.00
18126;DHT22;53956;52.442;13.284;2023-08-21T07:57:36;30.90;80.60
18126;DHT22;53956;52.442;13.284;2023-08-21T08:00:04;30.80;80.40
18126;DHT22;53956;52.442;13.284;2023-08-21T08:02:38;30.50;80.90
18126;DHT22;53956;52.442;13.284;2023-08-21T08:05:06;30.40;80.90
18126;DHT22;53956;52.442;13.284;2023-08-21T08:07:33;30.50;80.10
18126;DHT22;53956;52.442;13.284;2023-08-21T08:10:01;30.70;80.40
18126;DHT22;53956;52.442;13.284;2023-08-21T08:12:28;30.50;80.20
18126;DHT22;53956;52.442;13.284;2023-08-21T08:14:54;30.20;81.60
18126;DHT22;53956;52.442;13.284;2023-08-21T08:17:21;29.90;82.30
18126;DHT22;53956;52.442;13.284;2023-08-21T08:19:48;29.80;80.80
18126;DHT22;53956;52.442;13.284;2023-08-21T08:22:14;29.70;80.20
18126;DHT22;53956;52.442;13.284;2023-08-21T08:24:41;29.80;80.50
18126;DHT22;53956;52.442;13.284;2023-08-21T08:27:09;29.60;80.30
18126;DHT22;53956;52.442;13.284;2023-08-21T08:29:35;29.70;79.00
18126;DHT22;53956;52.442;13.284;2023-08-21T08:32:02;29.60;78.90
18126;DHT22;53956;52.442;13.284;2023-08-21T08:34:29;29.50;79.10
18126;DHT22;53956;52.442;13.284;2023-08-21T08:36:55;29.80;79.30
18126;DHT22;53956;52.442;13.284;2023-08-21T08:39:22;30.60;77.20
18126;DHT22;53956;52.442;13.284;2023-08-21T08:41:54;30.90;75.60
18126;DHT22;53956;52.442;13.284;2023-08-21T08:44:25;30.80;73.60
18126;DHT22;53956;52.442;13.284;2023-08-21T08:46:52;30.90;73.80
18126;DHT22;53956;52.442;13.284;2023-08-21T08:49:20;30.50;73.00
18126;DHT22;53956;52.442;13.284;2023-08-21T08:51:49;30.40;72.60
18126;DHT22;53956;52.442;13.284;2023-08-21T08:54:16;30.40;73.20
18126;DHT22;53956;52.442;13.284;2023-08-21T08:56:44;30.30;71.60
18126;DHT22;53956;52.442;13.284;2023-08-21T08:59:11;30.40;72.70
18126;DHT22;53956;52.442;13.284;2023-08-21T09:01:41;30.30;71.20
18126;DHT22;53956;52.442;13.284;2023-08-21T09:04:08;30.70;72.00
18126;DHT22;53956;52.442;13.284;2023-08-21T09:06:36;30.80;70.20
18126;DHT22;53956;52.442;13.284;2023-08-21T09:09:03;30.90;67.10
18126;DHT22;53956;52.442;13.284;2023-08-21T09:11:30;31.10;66.90
18126;DHT22;53956;52.442;13.284;2023-08-21T09:13:56;31.30;66.80
18126;DHT22;53956;52.442;13.284;2023-08-21T09:16:25;31.60;64.20
18126;DHT22;53956;52.442;13.284;2023-08-21T09:18:54;32.00;62.00
18126;DHT22;53956;52.442;13.284;2023-08-21T09:21:23;32.20;62.60
18126;DHT22;53956;52.442;13.284;2023-08-21T09:23:56;31.90;61.60
18126;DHT22;53956;52.442;13.284;2023-08-21T09:26:23;31.80;63.10
18126;DHT22;53956;52.442;13.284;2023-08-21T09:28:52;31.90;62.50
18126;DHT22;53956;52.442;13.284;2023-08-21T09:31:21;31.80;62.30
18126;DHT22;53956;52.442;13.284;2023-08-21T09:33:56;31.90;62.60
18126;DHT22;53956;52.442;13.284;2023-08-21T09:36:23;32.00;61.00
18126;DHT22;53956;52.442;13.284;2023-08-21T09:38:50;31.90;62.00
18126;DHT22;53956;52.442;13.284;2023-08-21T09:41:19;31.90;62.20
18126;DHT22;53956;52.442;13.284;2023-08-21T09:43:46;31.90;61.20
18126;DHT22;53956;52.442;13.284;2023-08-21T09:46:14;31.90;61.70
18126;DHT22;53956;52.442;13.284;2023-08-21T09:48:41;31.90;61.40
18126;DHT22;53956;52.442;13.284;2023-08-21T09:51:11;31.80;62.30
18126;DHT22;53956;52.442;13.284;2023-08-21T09:53:37;31.60;62.60
18126;DHT22;53956;52.442;13.284;2023-08-21T09:56:06;31.70;63.20
18126;DHT22;53956;52.442;13.284;2023-08-21T09:58:32;31.70;62.20
18126;DHT22;53956;52.442;13.284;2023-08-21T10:01:04;31.50;63.60
18126;DHT22;53956;52.442;13.284;2023-08-21T10:03:38;31.30;63.90
18126;DHT22;53956;52.442;13.284;2023-08-21T10:06:05;31.30;63.90
18126;DHT22;53956;52.442;13.284;2023-08-21T10:08:36;31.40;63.10
18126;DHT22;53956;52.442;13.284;2023-08-21T10:11:04;31.40;63.00
18126;DHT22;53956;52.442;13.284;2023-08-21T10:13:32;31.20;63.00
18126;DHT22;53956;52.442;13.284;2023-08-21T10:16:00;31.30;63.70
18126;DHT22;53956;52.442;13.284;2023-08-21T10:18:30;31.40;61.70
18126;DHT22;53956;52.442;13.284;2023-08-21T10:21:10;31.10;63.00
18126;DHT22;53956;52.442;13.284;2023-08-21T10:23:39;31.20;62.40
18126;DHT22;53956;52.442;13.284;2023-08-21T10:26:07;31.00;61.50
18126;DHT22;53956;52.442;13.284;2023-08-21T10:28:49;31.00;61.60
18126;DHT22;53956;52.442;13.284;2023-08-21T10:31:26;31.00;63.40
18126;DHT22;53956;52.442;13.284;2023-08-21T10:33:53;31.20;62.60
18126;DHT22;53956;52.442;13.284;2023-08-21T10:39:24;31.00;63.50
18126;DHT22;53956;52.442;13.284;2023-08-21T10:41:54;30.90;62.70
18126;DHT22;53956;52.442;13.284;2023-08-21T10:44:47;31.10;64.80
18126;DHT22;53956;52.442;13.284;2023-08-21T10:47:18;31.20;65.60
18126;DHT22;53956;52.442;13.284;2023-08-21T10:49:46;31.10;63.80
18126;DHT22;53956;52.442;13.284;2023-08-21T10:52:13;31.20;63.50
18126;DHT22;53956;52.442;13.284;2023-08-21T10:54:49;31.10;62.60
18126;DHT22;53956;52.442;13.284;2023-08-21T10:57:16;31.10;63.50
18126;DHT22;53956;52.442;13.284;2023-08-21T10:59:50;31.20;63.40
18126;DHT22;53956;52.442;13.284;2023-08-21T11:02:17;31.00;63.10
18126;DHT22;53956;52.442;13.284;2023-08-21T11:04:44;30.70;63.00
18126;DHT22;53956;52.442;13.284;2023-08-21T11:07:11;30.70;64.20
18126;DHT22;53956;52.442;13.284;2023-08-21T11:09:38;30.60;63.10
18126;DHT22;53956;52.442;13.284;2023-08-21T11:12:08;30.70;63.80
18126;DHT22;53956;52.442;13.284;2023-08-21T11:14:35;30.70;63.50
18126;DHT22;53956;52.442;13.284;2023-08-21T11:17:02;30.60;63.60
18126;DHT22;53956;52.442;13.284;2023-08-21T11:19:30;30.70;64.60
18126;DHT22;53956;52.442;13.284;2023-08-21T11:21:58;30.80;64.10
18126;DHT22;53956;52.442;13.284;2023-08-21T11:24:30;30.80;64.30
18126;DHT22;53956;52.442;13.284;2023-08-21T11:26:56;30.80;63.40
18126;DHT22;53956;52.442;13.284;2023-08-21T11:29:25;30.80;62.60
18126;DHT22;53956;52.442;13.284;2023-08-21T11:31:52;30.90;62.60
18126;DHT22;53956;52.442;13.284;2023-08-21T11:34:19;30.80;62.80
18126;DHT22;53956;52.442;13.284;2023-08-21T11:36:47;30.70;63.60
18126;DHT22;53956;52.442;13.284;2023-08-21T11:39:14;30.70;63.60
18126;DHT22;53956;52.442;13.284;2023-08-21T11:41:53;30.70;64.30
18126;DHT22;53956;52.442;13.284;2023-08-21T11:44:20;30.60;64.50
18126;DHT22;53956;52.442;13.284;2023-08-21T11:46:50;30.50;63.90
18126;DHT22;53956;52.442;13.284;2023-08-21T11:49:17;30.40;63.10
18126;DHT22;53956;52.442;13.284;2023-08-21T11:51:45;30.50;64.70
18126;DHT22;53956;52.442;13.284;2023-08-21T11:54:11;30.30;63.70
18126;DHT22;53956;52.442;13.284;2023-08-21T11:56:38;30.40;64.20
18126;DHT22;53956;52.442;13.284;2023-08-21T11:59:06;30.40;64.20
18126;DHT22;53956;52.442;13.284;2023-08-21T12:01:33;30.40;63.20
18126;DHT22;53956;52.442;13.284;2023-08-21T12:04:01;30.30;63.10
18126;DHT22;53956;52.442;13.284;2023-08-21T12:06:44;30.40;63.00
18126;DHT22;53956;52.442;13.284;2023-08-21T12:09:10;30.40;63.90
18126;DHT22;53956;52.442;13.284;2023-08-21T12:11:37;30.30;63.30
18126;DHT22;53956;52.442;13.284;2023-08-21T12:14:04;30.20;63.70
18126;DHT22;53956;52.442;13.284;2023-08-21T12:16:31;30.20;63.70
18126;DHT22;53956;52.442;13.284;2023-08-21T12:18:57;30.10;64.40
18126;DHT22;53956;52.442;13.284;2023-08-21T12:21:25;30.10;65.00
18126;DHT22;53956;52.442;13.284;2023-08-21T12:23:52;30.00;64.20
18126;DHT22;53956;52.442;13.284;2023-08-21T12:26:18;30.10;65.20
18126;DHT22;53956;52.442;13.284;2023-08-21T12:28:47;30.00;64.40
18126;DHT22;53956;52.442;13.284;2023-08-21T12:31:14;30.10;65.00
18126;DHT22;53956;52.442;13.284;2023-08-21T12:33:41;30.20;64.60
18126;DHT22;53956;52.442;13.284;2023-08-21T12:36:08;30.10;65.00
18126;DHT22;53956;52.442;13.284;2023-08-21T12:38:36;30.00;64.40
18126;DHT22;53956;52.442;13.284;2023-08-21T12:41:03;30.10;65.30
18126;DHT22;53956;52.442;13.284;2023-08-21T12:43:30;30.10;65.30
18126;DHT22;53956;52.442;13.284;2023-08-21T12:45:57;30.10;65.80
18126;DHT22;53956;52.442;13.284;2023-08-21T12:48:24;30.20;65.20
18126;DHT22;53956;52.442;13.284;2023-08-21T12:50:50;30.30;65.70
18126;DHT22;53956;52.442;13.284;2023-08-21T12:53:17;30.30;64.40
18126;DHT22;53956;52.442;13.284;2023-08-21T12:55:45;30.20;64.70
18126;DHT22;53956;52.442;13.284;2023-08-21T12:58:11;30.30;63.90
18126;DHT22;53956;52.442;13.284;2023-08-21T13:00:39;30.20;62.70
18126;DHT22;53956;52.442;13.284;2023-08-21T13:03:05;30.00;62.30
18126;DHT22;53956;52.442;13.284;2023-08-21T13:05:33;30.10;62.10
18126;DHT22;53956;52.442;13.284;2023-08-21T13:08:00;30.10;63.40
18126;DHT22;53956;52.442;13.284;2023-08-21T13:10:27;30.10;61.80
18126;DHT22;53956;52.442;13.284;2023-08-21T13:12:55;30.20;61.70
18126;DHT22;53956;52.442;13.284;2023-08-21T13:15:22;30.10;62.50
18126;DHT22;53956;52.442;13.284;2023-08-21T13:17:48;30.20;63.80
18126;DHT22;53956;52.442;13.284;2023-08-21T13:20:15;30.20;64.00
18126;DHT22;53956;52.442;13.284;2023-08-21T13:22:46;30.20;62.70
18126;DHT22;53956;52.442;13.284;2023-08-21T13:25:14;30.30;63.70
18126;DHT22;53956;52.442;13.284;2023-08-21T13:27:41;30.10;63.90
18126;DHT22;53956;52.442;13.284;2023-08-21T13:30:10;30.20;64.90
18126;DHT22;53956;52.442;13.284;2023-08-21T13:32:37;30.30;64.80
18126;DHT22;53956;52.442;13.284;2023-08-21T13:35:04;30.40;64.50
18126;DHT22;53956;52.442;13.284;2023-08-21T13:37:32;30.30;63.80
18126;DHT22;53956;52.442;13.284;2023-08-21T13:39:59;30.30;61.70
18126;DHT22;53956;52.442;13.284;2023-08-21T13:42:26;30.10;61.90
18126;DHT22;53956;52.442;13.284;2023-08-21T13:44:55;30.00;64.20
18126;DHT22;53956;52.442;13.284;2023-08-21T13:47:23;30.10;63.00
18126;DHT22;53956;52.442;13.284;2023-08-21T13:49:50;29.80;62.80
18126;DHT22;53956;52.442;13.284;2023-08-21T13:52:17;29.90;62.20
18126;DHT22;53956;52.442;13.284;2023-08-21T13:54:43;29.90;61.50
18126;DHT22;53956;52.442;13.284;2023-08-21T13:57:10;29.90;62.60
18126;DHT22;53956;52.442;13.284;2023-08-21T13:59:36;30.10;62.40
18126;DHT22;53956;52.442;13.284;2023-08-21T14:02:03;30.00;60.70
18126;DHT22;53956;52.442;13.284;2023-08-21T14:04:32;29.90;58.80
18126;DHT22;53956;52.442;13.284;2023-08-21T14:06:58;29.80;58.80
18126;DHT22;53956;52.442;13.284;2023-08-21T14:09:25;29.80;59.80
18126;DHT22;53956;52.442;13.284;2023-08-21T14:11:52;29.90;60.40
18126;DHT22;53956;52.442;13.284;2023-08-21T14:14:18;29.90;60.50
18126;DHT22;53956;52.442;13.284;2023-08-21T14:16:45;29.80;61.00
18126;DHT22;53956;52.442;13.284;2023-08-21T14:19:12;29.90;60.40
18126;DHT22;53956;52.442;13.284;2023-08-21T14:21:40;29.90;61.10
18126;DHT22;53956;52.442;13.284;2023-08-21T14:24:06;29.80;61.10
18126;DHT22;53956;52.442;13.284;2023-08-21T14:26:34;29.80;61.30
18126;DHT22;53956;52.442;13.284;2023-08-21T14:29:00;29.90;61.40
18126;DHT22;53956;52.442;13.284;2023-08-21T14:31:27;29.90;62.40
18126;DHT22;53956;52.442;13.284;2023-08-21T14:33:54;29.80;62.50
18126;DHT22;53956;52.442;13.284;2023-08-21T14:36:21;29.90;62.80
18126;DHT22;53956;52.442;13.284;2023-08-21T14:38:49;29.80;62.70
18126;DHT22;53956;52.442;13.284;2023-08-21T14:41:16;29.80;62.30
18126;DHT22;53956;52.442;13.284;2023-08-21T14:43:43;29.60;62.20
18126;DHT22;53956;52.442;13.284;2023-08-21T14:46:09;29.70;62.90
18126;DHT22;53956;52.442;13.284;2023-08-21T14:48:36;29.70;62.80
18126;DHT22;53956;52.442;13.284;2023-08-21T14:51:04;29.60;62.10
18126;DHT22;53956;52.442;13.284;2023-08-21T14:53:31;29.60;62.20
18126;DHT22;53956;52.442;13.284;2023-08-21T14:55:59;29.60;62.10
18126;DHT22;53956;52.442;13.284;2023-08-21T14:58:25;29.60;63.50
18126;DHT22;53956;52.442;13.284;2023-08-21T15:00:54;29.60;62.90
18126;DHT22;53956;52.442;13.284;2023-08-21T15:03:21;29.70;62.60
18126;DHT22;53956;52.442;13.284;2023-08-21T15:05:48;29.70;61.90
18126;DHT22;53956;52.442;13.284;2023-08-21T15:08:14;29.60;62.50
18126;DHT22;53956;52.442;13.284;2023-08-21T15:10:41;29.70;63.30
18126;DHT22;53956;52.442;13.284;2023-08-21T15:13:09;29.70;63.30
18126;DHT22;53956;52.442;13.284;2023-08-21T15:15:36;29.70;63.60
18126;DHT22;53956;52.442;13.284;2023-08-21T15:18:03;29.80;63.50
18126;DHT22;53956;52.442;13.284;2023-08-21T15:20:29;29.70;63.50
18126;DHT22;53956;52.442;13.284;2023-08-21T15:22:56;29.60;63.00
18126;DHT22;53956;52.442;13.284;2023-08-21T15:25:22;29.70;64.30
18126;DHT22;53956;52.442;13.284;2023-08-21T15:27:49;29.70;64.20
18126;DHT22;53956;52.442;13.284;2023-08-21T15:30:17;29.80;64.10
18126;DHT22;53956;52.442;13.284;2023-08-21T15:32:44;29.70;64.40
18126;DHT22;53956;52.442;13.284;2023-08-21T15:35:12;29.70;62.70
18126;DHT22;53956;52.442;13.284;2023-08-21T15:37:39;29.70;63.00
18126;DHT22;53956;52.442;13.284;2023-08-21T15:40:07;29.70;64.20
18126;DHT22;53956;52.442;13.284;2023-08-21T15:42:34;29.60;63.90
18126;DHT22;53956;52.442;13.284;2023-08-21T15:45:00;29.60;64.80
18126;DHT22;53956;52.442;13.284;2023-08-21T15:47:28;29.50;64.60
18126;DHT22;53956;52.442;13.284;2023-08-21T15:49:55;29.50;64.20
18126;DHT22;53956;52.442;13.284;2023-08-21T15:52:22;29.50;64.40